Last 30 Days

Middletown-South

Daily Data | America/Los_Angeles
as of 5/18/21 4:25 PM PDT
Date Daily Max Temp (°F) Time of Max Temp Daily Min Temp (°F) Time of Min Temp Daily Rain (In) Monthly Rain (In) Seasonal Rainfall (In) Wind Spd (mph) Daily Max Wind (mph) Time of Max Wind Max Wind Dir (°) Dew Pt (°F) Max RH (%) Min RH (%) Hrs <= 32F (hrs) Hrs <= 28F (hrs) Daily Leaf Wet Hrs (hrs) Degree Hrs (hrs) Hrs 70-85F (hrs) Hrs > 95F (hrs) Powdery Mildew Stress (pts) Storm Total (In) Daily Max Rain Intensity (In/Hr) Time of Max Rain Intensity Max 1 Min Rain (In) Max 1 Min Rain Time Max 15 Min Rain (In) Max 15 Min Precip Time Max 60 Min Rain (In) GDDs (DL) Bat Volt Min Day (V)
5/17/21 78.8 1403 40.8 0620 0.00 0.00 19.17 3.1 22.9 1603 SW | 216 44.6 94 33 0.0 0.0 2.0 94.8 8.68 0.00 100 - - - - - - - - 12.7 12.6
5/16/21 79.8 1345 46.6 0619 0.00 0.00 19.17 2.7 20.2 1738 WSW | 239 47.0 94 32 0.0 0.0 0.6 90.6 9.01 0.00 100 - - - - - - - - 12.9 12.6
5/15/21 80.4 1442 43.6 0609 0.00 0.00 19.17 2.4 20.4 1635 WSW | 240 46.5 91 26 0.0 0.0 0.0 79.6 8.44 0.00 100 - - - - - - - - 13.1 12.6
5/14/21 86.6 1244 46.4 0616 0.00 0.00 19.17 4.1 23.2 1523 SW | 230 44.0 85 19 0.0 0.0 0.0 169.6 6.89 0.00 90 - - - - - - - - 17.8 12.6
5/13/21 89.1 1345 44.6 0541 0.00 0.00 19.17 3.1 22.4 1628 SW | 215 41.2 74 14 0.0 0.0 0.0 189.4 6.39 0.00 70 - - - - - - - - 17.7 12.6
5/12/21 87.2 1449 46.7 0621 0.00 0.00 19.17 3.4 18.4 1214 SW | 231 33.8 70 8 0.0 0.0 0.0 206.7 5.37 0.00 80 - - - - - - - - 18.6 12.6
5/11/21 88.0 1301 47.5 0538 0.00 0.00 19.17 3.4 21.7 1610 SW | 228 34.0 60 10 0.0 0.0 0.0 222.2 5.07 0.00 90 - - - - - - - - 19.4 12.6
5/10/21 87.7 1615 46.5 0559 0.00 0.00 19.17 2.9 16.4 1115 ENE | 64 30.7 74 4 0.0 0.0 0.0 189.1 5.77 0.00 100 - - - - - - - - 17.5 12.5
5/9/21 84.0 1517 48.0 0609 0.00 0.00 19.17 3.1 16.6 1036 ENE | 62 38.6 73 13 0.0 0.0 0.0 154.0 11.19 0.00 100 - - - - - - - - 16.4 12.6
5/8/21 84.6 1631 43.7 0257 0.00 0.00 19.17 4.4 26.7 1054 NNE | 16 29.0 80 7 0.0 0.0 0.0 161.4 11.00 0.00 100 - - - - - - - - 17.0 12.6
5/7/21 78.4 1505 41.0 0548 0.00 0.00 19.17 3.0 16.9 1706 SW | 225 39.1 89 21 0.0 0.0 0.0 82.4 8.37 0.00 100 - - - - - - - - 11.6 12.6
5/6/21 77.1 1506 43.2 0625 0.00 0.00 19.17 3.5 21.2 1429 SSW | 210 40.4 76 20 0.0 0.0 0.0 91.7 9.79 0.00 90 - - - - - - - - 13.0 12.6
5/5/21 89.6 1353 48.7 0541 0.00 0.00 19.17 3.0 18.1 1756 W | 277 43.6 85 16 0.0 0.0 0.0 207.4 4.19 0.00 100 - - - - - - - - 19.1 12.6
5/4/21 86.3 1522 47.7 0615 0.00 0.00 19.17 2.9 15.6 1904 WSW | 250 43.0 84 17 0.0 0.0 0.0 188.3 11.32 0.00 100 - - - - - - - - 18.0 12.6
5/3/21 85.9 1452 44.9 0518 0.00 0.00 19.17 3.9 26.4 1349 NNE | 14 36.4 88 6 0.0 0.0 0.0 169.2 10.11 0.00 100 - - - - - - - - 16.9 12.6
5/2/21 80.9 1525 43.2 0604 0.00 0.00 19.17 3.0 17.0 1828 NW | 326 39.1 86 15 0.0 0.0 0.0 109.1 9.68 0.00 100 - - - - - - - - 13.3 12.6
5/1/21 77.4 1655 47.3 0343 0.00 0.00 19.17 5.2 23.7 2244 WNW | 300 43.3 68 28 0.0 0.0 0.0 106.5 11.14 0.00 100 - - - - - - - - 16.0 12.6
4/30/21 82.6 1231 45.6 0628 0.00 0.59 19.17 3.0 19.3 1804 SW | 228 42.9 89 15 0.0 0.0 0.0 124.2 9.70 0.00 100 - - - - - - - - 14.6 12.6
4/29/21 85.3 1402 42.9 0639 0.00 0.59 19.17 3.3 20.1 1607 SW | 214 39.9 89 14 0.0 0.0 0.0 173.3 11.43 0.00 80 - - - - - - - - 16.6 12.6
4/28/21 83.6 1530 39.4 0611 0.00 0.59 19.17 3.0 18.2 1627 W | 260 36.1 88 15 0.0 0.0 0.0 140.1 11.14 0.00 60 - - - - - - - - 14.5 12.6
4/27/21 75.3 1720 34.1 0623 0.00 0.59 19.17 2.9 17.3 1229 N | 9 32.0 99 10 0.0 0.0 7.2 57.6 6.14 0.00 40 - - - - - - - - 9.6 12.6
4/26/21 59.7 1652 32.3 0632 0.00 0.59 19.17 2.3 15.4 1700 WSW | 241 36.6 98 39 0.0 0.0 10.3 0.0 0.00 0.00 50 - - - - - - - - 2.8 12.7
4/25/21 57.2 1531 37.0 0058 0.58 0.59 19.17 4.2 20.6 1430 WNW | 290 40.1 96 44 0.0 0.0 11.8 0.0 0.00 0.00 60 0.58 0.56 1233 0.01 0817 0.07 1234 0.16 0.8 12.7
4/24/21 61.5 1410 44.9 0440 0.00 0.01 18.59 6.2 22.2 1230 WNW | 290 40.3 86 41 0.0 0.0 0.0 0.0 0.00 0.00 70 - - - - - - - - 2.3 12.6
4/23/21 72.9 1232 38.5 0638 0.00 0.01 18.59 4.8 25.0 1955 SW | 224 41.4 96 33 0.0 0.0 6.5 26.1 1.53 0.00 80 - - - - - - - - 8.4 12.6
4/22/21 76.3 1438 37.6 0624 0.00 0.01 18.59 2.8 22.7 1551 WSW | 243 42.0 95 26 0.0 0.0 2.7 40.0 3.24 0.00 90 - - - - - - - - 8.4 12.6
4/21/21 76.7 1221 41.1 0610 0.00 0.01 18.59 3.6 21.0 1419 SW | 236 39.0 91 11 0.0 0.0 0.0 66.8 7.44 0.00 70 - - - - - - - - 10.8 12.6
4/20/21 72.8 1156 41.3 0514 0.00 0.01 18.59 3.7 28.5 1710 NE | 36 38.9 80 26 0.0 0.0 0.0 33.5 2.56 0.00 80 - - - - - - - - 9.1 12.6
4/19/21 82.8 1501 43.7 0650 0.00 0.01 18.59 3.8 22.1 1721 SW | 236 37.2 77 14 0.0 0.0 0.0 137.1 10.34 0.00 60 - - - - - - - - 14.3 12.6
4/18/21 86.4 1542 40.5 0639 0.00 0.01 18.59 2.9 15.4 1323 NE | 39 29.5 71 7 0.0 0.0 0.0 171.5 5.92 0.00 70 - - - - - - - - 16.2 12.5
Max 89.6 - 48.7 - 0.58 0.59 - 6.2 28.5 - - 47.0 99 44 0.0 0.0 11.8 222.2 11.43 0.00 - - - - - - - - - 19.4 12.7
Avg - - - - - 0.12 - 3.5 - - - 39.0 - - 0.0 0.0 - - 7.06 0.00 - - - - - - - - - 13.3 -
Min 57.2 - 32.3 - 0.00 0.00 - 2.3 15.4 - - 29.0 60 4 0.0 0.0 0.0 0.0 0.00 0.00 - - - - - - - - - 0.8 12.5
Total - - - - - - - - - - - - - - 0.0 0.0 - - 211.84 0.00 - - - - - - - - - 399.5 -